createdAt,value
2019-05-30T00:00:18.346Z,75.7
2019-05-30T00:01:06.521Z,75.7
2019-05-30T00:01:56.386Z,75.6
2019-05-30T00:02:42.913Z,75.8
2019-05-30T00:03:31.126Z,75.8
2019-05-30T00:04:24.651Z,75.8
2019-05-30T00:05:12.840Z,75.7
2019-05-30T00:06:02.395Z,75.7
2019-05-30T00:06:49.233Z,75.7
2019-05-30T00:07:37.454Z,75.9
2019-05-30T00:08:30.964Z,75.9
2019-05-30T00:09:19.134Z,75.9
2019-05-30T00:10:08.977Z,75.8
2019-05-30T00:10:56.490Z,75.7
2019-05-30T00:11:43.744Z,75.9
2019-05-30T00:12:37.334Z,75.8
2019-05-30T00:13:25.525Z,75.9
2019-05-30T00:14:14.217Z,75.7
2019-05-30T00:15:05.906Z,75.7
2019-05-30T00:15:50.062Z,75.7
2019-05-30T00:16:43.602Z,75.6
2019-05-30T00:17:31.817Z,75.5
2019-05-30T00:18:20.612Z,75.5
2019-05-30T00:19:08.239Z,75.7
2019-05-30T00:19:56.714Z,75.7
2019-05-30T00:20:49.930Z,75.8
2019-05-30T00:21:38.126Z,75.8
2019-05-30T00:22:27.352Z,75.9
2019-05-30T00:23:14.514Z,76.0
2019-05-30T00:24:03.807Z,75.9
2019-05-30T00:24:56.243Z,75.9
2019-05-30T00:25:44.458Z,75.8
2019-05-30T00:26:34.898Z,75.7
2019-05-30T00:27:20.815Z,76.0
2019-05-30T00:28:09.012Z,75.9
2019-05-30T00:29:02.664Z,76.0
2019-05-30T00:29:50.741Z,76.0
2019-05-30T00:30:40.058Z,76.1
2019-05-30T00:31:27.137Z,76.1
2019-05-30T00:32:15.314Z,76.2
2019-05-30T00:33:08.846Z,76.3
2019-05-30T00:33:57.484Z,76.2
2019-05-30T00:34:45.778Z,76.1
2019-05-30T00:35:33.423Z,76.0
2019-05-30T00:36:21.625Z,76.2
2019-05-30T00:37:15.134Z,76.2
2019-05-30T00:38:03.878Z,76.1
2019-05-30T00:38:52.091Z,76.2
2019-05-30T00:39:39.723Z,76.4
2019-05-30T00:40:27.889Z,76.5
2019-05-30T00:41:21.422Z,76.4
2019-05-30T00:42:09.613Z,76.5
2019-05-30T00:42:47.249Z,76.5
2019-05-30T00:42:49.710Z,76.5
2019-05-30T00:43:37.378Z,76.7
2019-05-30T00:44:25.701Z,76.9
2019-05-30T00:45:21.170Z,77.0
2019-05-30T00:46:07.305Z,77.0
2019-05-30T00:46:56.154Z,77.0
2019-05-30T00:47:43.720Z,76.8
2019-05-30T00:48:31.911Z,76.6
2019-05-30T00:49:25.404Z,76.4
2019-05-30T00:50:13.586Z,76.2
2019-05-30T00:51:49.993Z,76.5
2019-05-30T00:52:38.133Z,76.4
2019-05-30T00:53:22.660Z,76.4
2019-05-30T00:54:10.788Z,76.4
2019-05-30T00:55:00.679Z,76.4
2019-05-30T00:55:47.156Z,76.5
2019-05-30T00:56:35.333Z,76.4
2019-05-30T00:57:28.863Z,76.4
2019-05-30T00:58:17.065Z,76.5
2019-05-30T00:59:06.932Z,76.4
2019-05-30T00:59:53.486Z,76.6
2019-05-30T01:00:43.868Z,76.7
2019-05-30T01:01:35.183Z,76.8
2019-05-30T01:02:23.361Z,76.7
2019-05-30T01:04:00.775Z,76.8
2019-05-30T01:04:47.916Z,76.8
2019-05-30T01:05:41.481Z,77.0
2019-05-30T01:06:29.667Z,76.8
2019-05-30T01:07:18.864Z,76.8
2019-05-30T01:08:07.102Z,77.0
2019-05-30T01:08:54.219Z,76.9
2019-05-30T01:09:47.770Z,77.0
2019-05-30T01:10:35.921Z,77.2
2019-05-30T01:11:24.591Z,77.3
2019-05-30T01:12:12.330Z,77.2
2019-05-30T01:13:01.374Z,77.3
2019-05-30T01:13:53.999Z,77.1
2019-05-30T01:14:42.248Z,77.1
2019-05-30T01:15:30.891Z,77.2
2019-05-30T01:16:18.596Z,77.2
2019-05-30T01:17:07.369Z,77.1
2019-05-30T01:18:01.038Z,77.1
2019-05-30T01:18:48.460Z,77.1
2019-05-30T01:19:37.169Z,76.8
2019-05-30T01:20:24.822Z,76.8
2019-05-30T01:21:13.006Z,76.7
2019-05-30T01:22:07.551Z,76.7
2019-05-30T01:22:54.720Z,76.9
2019-05-30T01:23:43.401Z,77.1
2019-05-30T01:24:31.120Z,77.2
2019-05-30T01:25:19.311Z,77.2
2019-05-30T01:26:12.858Z,77.2
2019-05-30T01:27:01.356Z,77.1
2019-05-30T01:27:49.785Z,77.1
2019-05-30T01:28:37.375Z,77.3
2019-05-30T01:29:25.617Z,77.4
2019-05-30T01:30:19.107Z,77.5
2019-05-30T01:31:10.973Z,77.6
2019-05-30T01:31:57.414Z,77.8
2019-05-30T01:32:43.644Z,78.1
2019-05-30T01:33:31.800Z,78.1
2019-05-30T01:34:25.385Z,78.0
2019-05-30T01:35:13.617Z,77.7
2019-05-30T01:36:02.325Z,77.7
2019-05-30T01:36:49.932Z,77.8
2019-05-30T01:37:38.125Z,77.8
2019-05-30T01:38:31.645Z,77.8
2019-05-30T01:39:19.812Z,77.8
2019-05-30T01:40:09.019Z,77.8
2019-05-30T01:40:56.185Z,77.9
2019-05-30T01:41:44.352Z,78.0
2019-05-30T01:42:37.917Z,77.9
2019-05-30T01:43:26.047Z,77.9
2019-05-30T01:44:14.887Z,77.9
2019-05-30T01:45:02.641Z,78.0
2019-05-30T01:45:50.585Z,78.1
2019-05-30T01:46:44.096Z,78.1
2019-05-30T01:47:32.305Z,78.0
2019-05-30T01:48:21.080Z,78.0
2019-05-30T01:49:08.793Z,78.0
2019-05-30T01:49:58.155Z,77.8
2019-05-30T01:50:50.357Z,77.8
2019-05-30T01:51:38.498Z,77.8
2019-05-30T01:52:27.255Z,77.8
2019-05-30T01:53:14.859Z,77.6
2019-05-30T01:54:03.022Z,77.7
2019-05-30T01:54:56.555Z,78.0
2019-05-30T01:55:44.732Z,78.1
2019-05-30T01:56:33.491Z,78.1
2019-05-30T01:57:21.091Z,78.0
2019-05-30T01:58:09.258Z,78.1
2019-05-30T01:59:02.758Z,78.0
2019-05-30T01:59:50.937Z,78.2
2019-05-30T02:00:39.692Z,78.2
2019-05-30T02:01:27.321Z,78.2
2019-05-30T02:02:15.508Z,78.2
2019-05-30T02:03:09.510Z,78.2
2019-05-30T02:03:57.181Z,78.6
2019-05-30T02:04:46.068Z,78.8
2019-05-30T02:05:33.564Z,78.4
2019-05-30T02:06:21.783Z,78.2
2019-05-30T02:07:15.266Z,78.0
2019-05-30T02:08:03.433Z,78.1
2019-05-30T02:08:52.709Z,78.2
2019-05-30T02:09:39.777Z,78.5
2019-05-30T02:10:27.949Z,78.8
2019-05-30T02:10:43.894Z,78.8
2019-05-30T02:11:15.913Z,78.9
2019-05-30T02:12:05.479Z,78.8
2019-05-30T02:12:52.819Z,78.4
2019-05-30T02:13:40.415Z,78.2
2019-05-30T02:14:28.595Z,78.5
2019-05-30T02:15:22.134Z,78.1
2019-05-30T02:16:10.302Z,78.0
2019-05-30T02:16:59.619Z,77.9
2019-05-30T02:17:46.652Z,77.8
2019-05-30T02:18:34.815Z,77.9
2019-05-30T02:19:28.310Z,77.9
2019-05-30T02:20:16.497Z,78.0
2019-05-30T02:21:05.911Z,78.0
2019-05-30T02:21:52.870Z,78.0
2019-05-30T02:22:41.028Z,78.1
2019-05-30T02:23:34.556Z,78.3
2019-05-30T02:24:22.741Z,78.1
2019-05-30T02:25:11.462Z,78.1
2019-05-30T02:26:00.095Z,78.2
2019-05-30T02:26:47.228Z,78.2
2019-05-30T02:27:40.731Z,78.2
2019-05-30T02:28:28.896Z,78.2
2019-05-30T02:29:17.671Z,78.2
2019-05-30T02:30:06.643Z,78.0
2019-05-30T02:30:53.404Z,78.3
2019-05-30T02:31:46.911Z,78.4
2019-05-30T02:32:35.095Z,78.4
2019-05-30T02:33:23.984Z,78.4
2019-05-30T02:34:12.335Z,78.4
2019-05-30T02:35:00.794Z,78.2
2019-05-30T02:35:53.129Z,78.1
2019-05-30T02:36:41.292Z,77.7
2019-05-30T02:37:30.525Z,77.9
2019-05-30T02:38:17.640Z,77.8
2019-05-30T02:39:07.420Z,77.7
2019-05-30T02:40:02.919Z,78.0
2019-05-30T02:40:47.510Z,78.0
2019-05-30T02:41:36.632Z,78.2
2019-05-30T02:42:23.835Z,78.4
2019-05-30T02:43:12.400Z,78.9
2019-05-30T02:44:07.450Z,79.1
2019-05-30T02:44:53.768Z,79.3
2019-05-30T02:45:42.478Z,79.6
2019-05-30T02:46:30.038Z,79.1
2019-05-30T02:47:22.179Z,79.1
2019-05-30T02:48:12.374Z,79.1
2019-05-30T02:49:02.155Z,79.4
2019-05-30T02:49:48.575Z,79.4
2019-05-30T02:50:36.187Z,79.3
2019-05-30T02:51:24.347Z,79.2
2019-05-30T02:52:17.878Z,79.2
2019-05-30T02:53:07.981Z,79.0
2019-05-30T02:53:54.739Z,78.8
2019-05-30T02:54:42.362Z,78.8
2019-05-30T02:55:30.533Z,78.5
2019-05-30T02:56:24.071Z,78.3
2019-05-30T02:57:12.648Z,78.4
2019-05-30T02:58:01.355Z,78.8
2019-05-30T02:58:48.539Z,78.6
2019-05-30T02:59:36.722Z,78.7
2019-05-30T03:00:30.261Z,78.7
2019-05-30T03:01:18.406Z,79.0
2019-05-30T03:02:12.363Z,79.1
2019-05-30T03:02:54.738Z,79.1
2019-05-30T03:03:42.923Z,79.1
2019-05-30T03:04:36.443Z,79.2
2019-05-30T03:05:24.592Z,78.9
2019-05-30T03:06:14.078Z,78.9
2019-05-30T03:07:02.002Z,79.0
2019-05-30T03:07:49.123Z,78.9
2019-05-30T03:08:42.593Z,78.9
2019-05-30T03:09:30.769Z,79.2
2019-05-30T03:10:19.466Z,79.1
2019-05-30T03:11:09.995Z,79.1
2019-05-30T03:11:55.263Z,79.1
2019-05-30T03:12:48.757Z,79.1
2019-05-30T03:13:36.918Z,78.9
2019-05-30T03:14:25.644Z,78.8
2019-05-30T03:15:15.579Z,78.7
2019-05-30T03:16:02.175Z,78.8
2019-05-30T03:16:54.927Z,78.8
2019-05-30T03:17:43.084Z,78.7
2019-05-30T03:18:31.774Z,78.6
2019-05-30T03:19:16.314Z,78.6
2019-05-30T03:19:18.590Z,78.6
2019-05-30T03:20:14.721Z,78.7
2019-05-30T03:21:00.248Z,78.9
2019-05-30T03:21:48.408Z,79.0
2019-05-30T03:22:37.097Z,79.1
2019-05-30T03:23:24.754Z,79.2
2019-05-30T03:24:14.356Z,79.2
2019-05-30T03:25:07.940Z,79.3
2019-05-30T03:25:54.545Z,79.4
2019-05-30T03:26:43.291Z,79.5
2019-05-30T03:27:21.818Z,79.3
2019-05-30T03:28:13.023Z,79.0
2019-05-30T03:29:05.587Z,78.9
2019-05-30T03:29:51.689Z,78.8
2019-05-30T03:30:40.390Z,78.9
2019-05-30T03:31:29.902Z,78.9
2019-05-30T03:32:59.293Z,78.8
2019-05-30T03:33:24.455Z,78.6
2019-05-30T03:33:57.828Z,78.4
2019-05-30T03:34:46.622Z,78.7
2019-05-30T03:35:41.754Z,78.6
2019-05-30T03:36:29.814Z,78.4
2019-05-30T03:37:27.423Z,78.3
2019-05-30T03:38:05.820Z,78.4
2019-05-30T03:38:52.732Z,78.4
2019-05-30T03:39:40.323Z,78.4
2019-05-30T03:39:53.561Z,78.4
2019-05-30T03:40:25.207Z,78.5
2019-05-30T03:41:16.498Z,78.6
2019-05-30T03:42:06.766Z,78.4
2019-05-30T03:42:53.396Z,78.1
2019-05-30T03:43:40.999Z,77.6
2019-05-30T03:44:29.165Z,77.5
2019-05-30T03:45:22.648Z,77.8
2019-05-30T03:46:12.735Z,78.0
2019-05-30T03:46:59.588Z,78.2
2019-05-30T03:47:47.132Z,78.5
2019-05-30T03:48:35.299Z,78.8
2019-05-30T03:49:28.809Z,78.9
2019-05-30T03:50:17.828Z,78.9
2019-05-30T03:51:06.213Z,78.9
2019-05-30T03:51:53.305Z,78.9
2019-05-30T03:52:41.486Z,78.8
2019-05-30T03:53:35.001Z,79.0
2019-05-30T03:54:23.167Z,79.2
2019-05-30T03:55:14.092Z,79.3
2019-05-30T03:55:59.515Z,79.2
2019-05-30T03:56:47.699Z,79.3
2019-05-30T03:57:41.177Z,79.3
2019-05-30T03:58:29.347Z,79.3
2019-05-30T03:59:18.338Z,79.1
2019-05-30T04:00:06.107Z,79.1
2019-05-30T04:00:53.842Z,78.8
2019-05-30T04:01:47.396Z,78.9
2019-05-30T04:02:55.304Z,78.8
2019-05-30T04:03:24.672Z,79.0
2019-05-30T04:04:13.834Z,79.1
2019-05-30T04:05:00.029Z,78.8
2019-05-30T04:05:53.537Z,79.1
2019-05-30T04:06:41.702Z,79.0
2019-05-30T04:07:30.372Z,79.0
2019-05-30T04:08:19.706Z,79.1
2019-05-30T04:09:07.155Z,79.3
2019-05-30T04:09:59.693Z,79.5
2019-05-30T04:10:47.877Z,79.6
2019-05-30T04:11:36.579Z,79.7
2019-05-30T04:12:24.217Z,80.0
2019-05-30T04:13:14.552Z,80.1
2019-05-30T04:14:06.896Z,80.1
2019-05-30T04:14:54.045Z,80.4
2019-05-30T04:15:42.755Z,80.4
2019-05-30T04:16:30.358Z,80.5
2019-05-30T04:17:19.915Z,80.5
2019-05-30T04:18:14.123Z,80.5
2019-05-30T04:19:00.197Z,80.3
2019-05-30T04:19:48.831Z,80.3
2019-05-30T04:20:36.524Z,80.4
2019-05-30T04:21:24.683Z,80.2
2019-05-30T04:22:19.604Z,80.1
2019-05-30T04:23:08.290Z,80.0
2019-05-30T04:23:55.013Z,80.0
2019-05-30T04:24:42.665Z,80.0
2019-05-30T04:25:30.860Z,79.9
2019-05-30T04:26:24.375Z,80.0
2019-05-30T04:27:13.828Z,79.8
2019-05-30T04:28:01.217Z,79.7
2019-05-30T04:28:48.819Z,79.7
2019-05-30T04:29:36.979Z,79.6
2019-05-30T04:30:30.487Z,79.6
2019-05-30T04:31:19.376Z,79.7
2019-05-30T04:32:08.449Z,79.7
2019-05-30T04:33:15.746Z,79.6
2019-05-30T04:33:43.176Z,79.6
2019-05-30T04:34:36.689Z,79.5
2019-05-30T04:35:24.849Z,79.4
2019-05-30T04:36:14.547Z,79.5
2019-05-30T04:37:01.171Z,79.5
2019-05-30T04:37:49.365Z,79.4
2019-05-30T04:38:42.843Z,79.4
2019-05-30T04:39:31.020Z,79.3
2019-05-30T04:40:19.851Z,79.3
2019-05-30T04:41:08.812Z,79.1
2019-05-30T04:41:55.502Z,79.2
2019-05-30T04:42:49.011Z,79.4
2019-05-30T04:43:37.214Z,79.6
2019-05-30T04:44:25.914Z,79.7
2019-05-30T04:45:13.727Z,79.5
2019-05-30T04:46:01.671Z,79.5
2019-05-30T04:46:55.190Z,79.4
2019-05-30T04:47:43.362Z,79.4
2019-05-30T04:48:32.151Z,79.3
2019-05-30T04:49:21.595Z,79.4
2019-05-30T04:50:07.870Z,79.6
2019-05-30T04:50:18.753Z,79.6
2019-05-30T04:50:52.379Z,79.7
2019-05-30T04:51:40.571Z,79.8
2019-05-30T04:52:29.213Z,79.8
2019-05-30T04:53:18.452Z,79.8
2019-05-30T04:54:05.121Z,79.6
2019-05-30T04:54:58.629Z,79.5
2019-05-30T04:55:46.780Z,79.4
2019-05-30T04:56:35.421Z,79.3
2019-05-30T04:57:26.858Z,79.2
2019-05-30T04:58:13.203Z,79.2
2019-05-30T04:59:04.827Z,79.4
2019-05-30T04:59:53.009Z,79.6
2019-05-30T05:00:41.697Z,79.8
2019-05-30T05:01:29.332Z,79.9
2019-05-30T05:02:18.785Z,79.9
2019-05-30T05:03:11.355Z,79.9
2019-05-30T05:03:59.181Z,80.0
2019-05-30T05:04:47.856Z,80.0
2019-05-30T05:05:35.573Z,79.9
2019-05-30T05:06:23.710Z,79.8
2019-05-30T05:07:17.841Z,79.7
2019-05-30T05:08:05.402Z,79.7
2019-05-30T05:08:54.061Z,79.7
2019-05-30T05:09:41.735Z,79.4
2019-05-30T05:10:29.902Z,79.5
2019-05-30T05:11:13.049Z,79.5
2019-05-30T05:11:22.590Z,79.4
2019-05-30T05:12:06.316Z,79.4
2019-05-30T05:12:54.939Z,79.5
2019-05-30T05:13:42.621Z,79.5
2019-05-30T05:14:30.809Z,79.5
2019-05-30T05:15:24.301Z,79.5
2019-05-30T05:16:22.984Z,79.5
2019-05-30T05:17:01.258Z,79.6
2019-05-30T05:17:48.806Z,79.4
2019-05-30T05:18:37.016Z,79.2
2019-05-30T05:19:30.558Z,78.9
2019-05-30T05:20:19.380Z,79.0
2019-05-30T05:21:10.663Z,78.8
2019-05-30T05:21:55.088Z,78.6
2019-05-30T05:22:43.247Z,78.5
2019-05-30T05:23:36.775Z,78.5
2019-05-30T05:24:24.978Z,78.5
2019-05-30T05:25:13.745Z,78.5
2019-05-30T05:26:01.676Z,78.5
2019-05-30T05:26:49.462Z,78.6
2019-05-30T05:27:43.007Z,78.7
2019-05-30T05:28:22.120Z,78.6
2019-05-30T05:29:10.798Z,78.6
2019-05-30T05:29:58.438Z,78.6
2019-05-30T05:30:46.622Z,78.6
2019-05-30T05:31:40.143Z,78.6
2019-05-30T05:32:28.329Z,78.6
2019-05-30T05:33:17.047Z,78.8
2019-05-30T05:34:04.679Z,78.9
2019-05-30T05:34:52.867Z,78.8
2019-05-30T05:35:46.419Z,78.5
2019-05-30T05:36:34.554Z,78.3
2019-05-30T05:37:23.371Z,78.3
2019-05-30T05:38:10.943Z,78.2
2019-05-30T05:38:59.086Z,78.1
2019-05-30T05:39:52.644Z,78.0
2019-05-30T05:40:40.827Z,78.0
2019-05-30T05:41:29.555Z,78.0
2019-05-30T05:42:18.074Z,78.0
2019-05-30T05:43:05.336Z,77.9
2019-05-30T05:43:58.861Z,77.7
2019-05-30T05:44:47.039Z,77.6
2019-05-30T05:45:35.760Z,77.6
2019-05-30T05:46:24.507Z,77.4
2019-05-30T05:47:11.593Z,77.3
2019-05-30T05:48:05.135Z,77.2
2019-05-30T05:48:53.284Z,77.2
2019-05-30T05:49:42.060Z,77.0
2019-05-30T05:50:29.635Z,76.9
2019-05-30T05:51:18.561Z,77.0
2019-05-30T05:52:12.122Z,76.9
2019-05-30T05:52:59.527Z,76.8
2019-05-30T05:53:48.298Z,76.9
2019-05-30T05:54:35.906Z,76.9
2019-05-30T05:55:24.981Z,76.8
2019-05-30T05:56:18.736Z,76.7
2019-05-30T05:57:05.811Z,76.5
2019-05-30T05:57:54.655Z,76.7
2019-05-30T05:58:42.177Z,76.5
2019-05-30T05:59:30.376Z,76.4
2019-05-30T06:00:25.221Z,76.4
2019-05-30T06:01:12.105Z,76.4
2019-05-30T06:02:01.540Z,76.3
2019-05-30T06:02:48.481Z,76.2
2019-05-30T06:03:36.666Z,76.2
2019-05-30T06:04:30.151Z,76.0
2019-05-30T06:05:18.366Z,75.7
2019-05-30T06:06:07.114Z,75.5
2019-05-30T06:06:54.730Z,75.6
2019-05-30T06:07:42.945Z,75.5
2019-05-30T06:08:36.455Z,75.5
2019-05-30T06:09:24.710Z,75.4
2019-05-30T06:10:13.508Z,75.5
2019-05-30T06:11:01.047Z,75.3
2019-05-30T06:11:49.303Z,75.2
2019-05-30T06:12:42.766Z,75.0
2019-05-30T06:13:30.961Z,74.8
2019-05-30T06:14:19.977Z,74.8
2019-05-30T06:15:07.366Z,74.8
2019-05-30T06:15:55.555Z,74.6
2019-05-30T06:16:49.129Z,74.5
2019-05-30T06:18:26.322Z,74.4
2019-05-30T06:19:17.107Z,74.2
2019-05-30T06:20:02.445Z,74.1
2019-05-30T06:20:55.500Z,74.1
2019-05-30T06:21:53.482Z,74.1
2019-05-30T06:22:00.136Z,74.1
2019-05-30T06:22:28.453Z,73.8
2019-05-30T06:23:17.330Z,74.1
2019-05-30T06:24:04.039Z,74.0
2019-05-30T06:24:57.589Z,73.6
2019-05-30T06:25:45.776Z,73.2
2019-05-30T06:26:33.963Z,73.1
2019-05-30T06:27:23.911Z,73.1
2019-05-30T06:28:10.431Z,72.9
2019-05-30T06:29:03.961Z,72.9
2019-05-30T06:29:52.102Z,72.8
2019-05-30T06:30:40.297Z,72.6
2019-05-30T06:31:29.067Z,72.6
2019-05-30T06:32:16.699Z,72.4
2019-05-30T06:33:10.267Z,72.3
2019-05-30T06:33:58.441Z,72.4
2019-05-30T06:34:46.647Z,72.1
2019-05-30T06:35:35.381Z,72.1
2019-05-30T06:36:23.187Z,72.0
2019-05-30T06:37:16.577Z,72.0
2019-05-30T06:38:04.789Z,72.0
2019-05-30T06:38:52.979Z,71.8
2019-05-30T06:39:41.776Z,71.7
2019-05-30T06:40:30.939Z,71.8
2019-05-30T06:41:23.530Z,71.8
2019-05-30T06:42:11.118Z,71.5
2019-05-30T06:42:59.338Z,71.5
2019-05-30T06:43:14.959Z,71.5
2019-05-30T06:43:44.966Z,71.2
2019-05-30T06:44:32.595Z,70.5
2019-05-30T06:45:26.817Z,70.5
2019-05-30T06:46:14.389Z,70.3
2019-05-30T06:47:02.609Z,70.2
2019-05-30T06:47:51.309Z,70.2
2019-05-30T06:48:39.039Z,70.1
2019-05-30T06:49:33.320Z,70.2
2019-05-30T06:50:20.774Z,70.1
2019-05-30T06:51:09.008Z,69.9
2019-05-30T06:51:57.809Z,69.7
2019-05-30T06:52:45.417Z,69.2
2019-05-30T06:53:38.999Z,68.8
2019-05-30T06:54:27.833Z,69.0
2019-05-30T06:55:15.425Z,68.8
2019-05-30T06:56:04.177Z,68.6
2019-05-30T06:56:51.868Z,68.2
2019-05-30T06:57:45.458Z,68.4
2019-05-30T06:58:45.801Z,68.6
2019-05-30T06:59:21.875Z,68.6
2019-05-30T07:00:10.629Z,68.4
2019-05-30T07:00:58.294Z,68.4
2019-05-30T07:01:52.339Z,68.6
2019-05-30T07:02:40.089Z,68.7
2019-05-30T07:03:28.517Z,68.8
2019-05-30T07:04:17.544Z,68.4
2019-05-30T07:05:05.257Z,68.2
2019-05-30T07:05:58.767Z,68.0
2019-05-30T07:06:46.781Z,67.4
2019-05-30T07:07:34.953Z,67.5
2019-05-30T07:08:24.593Z,67.3
2019-05-30T07:09:11.184Z,66.8
2019-05-30T07:10:04.767Z,66.4
2019-05-30T07:10:52.981Z,66.4
2019-05-30T07:11:42.410Z,65.8
2019-05-30T07:12:31.177Z,64.3
2019-05-30T07:13:17.666Z,64.0
2019-05-30T07:14:11.291Z,63.8
2019-05-30T07:14:59.476Z,62.9
2019-05-30T07:15:47.725Z,62.5
2019-05-30T07:16:36.574Z,62.3
2019-05-30T07:17:25.089Z,62.5
2019-05-30T07:18:17.754Z,62.4
2019-05-30T07:19:05.974Z,63.1
2019-05-30T07:19:54.202Z,63.4
2019-05-30T07:20:43.069Z,62.9
2019-05-30T07:21:31.719Z,63.2
2019-05-30T07:22:25.512Z,62.7
2019-05-30T07:23:12.469Z,62.9
2019-05-30T07:24:00.816Z,63.3
2019-05-30T07:24:49.500Z,63.5
2019-05-30T07:25:37.162Z,60.5
2019-05-30T07:26:31.876Z,60.9
2019-05-30T07:27:18.957Z,61.2
2019-05-30T07:28:07.257Z,61.7
2019-05-30T07:28:56.053Z,62.2
2019-05-30T07:29:43.638Z,61.8
2019-05-30T07:30:37.228Z,59.6
2019-05-30T07:31:26.061Z,59.3
2019-05-30T07:32:13.713Z,59.6
2019-05-30T07:33:02.605Z,59.3
2019-05-30T07:33:50.198Z,58.4
2019-05-30T07:34:46.019Z,57.1
2019-05-30T07:35:32.128Z,57.3
2019-05-30T07:36:20.240Z,56.9
2019-05-30T07:37:09.759Z,56.7
2019-05-30T07:37:56.736Z,56.9
2019-05-30T07:38:50.306Z,56.3
2019-05-30T07:39:38.531Z,54.7
2019-05-30T07:40:26.853Z,55.7
2019-05-30T07:41:16.128Z,55.0
2019-05-30T07:42:06.656Z,54.8
2019-05-30T07:42:56.914Z,54.0
2019-05-30T07:43:45.139Z,54.6
2019-05-30T07:44:33.529Z,54.0
2019-05-30T07:45:22.236Z,53.8
2019-05-30T07:46:09.914Z,53.0
2019-05-30T07:47:03.480Z,53.1
2019-05-30T07:47:51.743Z,53.2
2019-05-30T07:48:40.012Z,53.3
2019-05-30T07:49:32.384Z,52.9
2019-05-30T07:50:16.543Z,53.1
2019-05-30T07:51:10.174Z,53.9
2019-05-30T07:51:58.360Z,52.7
2019-05-30T07:52:46.604Z,53.4
2019-05-30T07:53:35.491Z,53.4
2019-05-30T07:54:23.134Z,52.1
2019-05-30T07:55:16.694Z,50.1
2019-05-30T07:56:04.976Z,49.7
2019-05-30T07:56:53.221Z,49.9
2019-05-30T07:57:42.758Z,49.7
2019-05-30T07:58:29.717Z,50.4
2019-05-30T07:59:23.300Z,50.6
2019-05-30T08:00:11.586Z,49.3
2019-05-30T08:00:59.858Z,48.7
2019-05-30T08:01:48.681Z,48.5
2019-05-30T08:02:36.403Z,48.1
2019-05-30T08:03:30.474Z,49.0
2019-05-30T08:04:18.155Z,49.0
2019-05-30T08:05:55.308Z,48.5
2019-05-30T08:06:44.361Z,48.8
2019-05-30T08:07:36.517Z,48.1
2019-05-30T08:08:24.811Z,47.5
2019-05-30T08:09:13.040Z,47.8
2019-05-30T08:10:01.298Z,46.3
2019-05-30T08:10:50.150Z,46.2
2019-05-30T08:11:43.123Z,45.2
2019-05-30T08:12:32.033Z,44.7
2019-05-30T08:14:07.931Z,44.2
2019-05-30T08:14:56.207Z,45.1
2019-05-30T08:15:50.879Z,45.5
2019-05-30T08:16:14.189Z,45.5
2019-05-30T08:16:35.485Z,45.6
2019-05-30T08:17:22.819Z,45.5
2019-05-30T08:18:11.067Z,45.1
2019-05-30T08:18:59.343Z,45.8
2019-05-30T08:19:53.579Z,45.2
2019-05-30T08:20:41.183Z,45.0
2019-05-30T08:21:29.845Z,45.3
2019-05-30T08:22:17.698Z,45.8
2019-05-30T08:23:09.512Z,45.3
2019-05-30T08:24:00.133Z,44.1
2019-05-30T08:24:47.850Z,44.9
2019-05-30T08:25:36.589Z,43.8
2019-05-30T08:26:24.394Z,44.2
2019-05-30T08:27:12.647Z,44.9
2019-05-30T08:28:06.996Z,45.3
2019-05-30T08:28:54.501Z,45.9
2019-05-30T08:29:42.771Z,44.4
2019-05-30T08:30:32.294Z,43.9
2019-05-30T08:31:19.323Z,43.9
2019-05-30T08:32:13.568Z,43.3
2019-05-30T08:33:01.350Z,42.7
2019-05-30T08:33:49.443Z,43.3
2019-05-30T08:34:38.787Z,42.6
2019-05-30T08:35:39.182Z,42.3
2019-05-30T08:36:20.182Z,42.2
2019-05-30T08:37:07.843Z,42.4
2019-05-30T08:37:56.126Z,42.1
2019-05-30T08:38:47.979Z,42.1
2019-05-30T08:39:33.016Z,42.0
2019-05-30T08:40:26.859Z,43.0
2019-05-30T08:41:14.568Z,44.4
2019-05-30T08:42:02.976Z,43.9
2019-05-30T08:42:51.142Z,43.5
2019-05-30T08:43:39.720Z,43.8
2019-05-30T08:44:33.846Z,42.6
2019-05-30T08:45:21.304Z,42.8
2019-05-30T08:46:09.634Z,42.9
2019-05-30T08:46:57.897Z,42.3
2019-05-30T08:47:46.196Z,42.8
2019-05-30T08:48:40.455Z,42.5
2019-05-30T08:49:28.071Z,41.9
2019-05-30T08:50:16.375Z,42.0
2019-05-30T08:51:04.655Z,41.9
2019-05-30T08:51:52.964Z,41.7
2019-05-30T08:52:47.046Z,40.7
2019-05-30T08:53:34.846Z,40.8
2019-05-30T08:54:23.125Z,40.7
2019-05-30T08:55:11.425Z,41.2
2019-05-30T08:55:59.733Z,40.0
2019-05-30T08:56:53.816Z,40.2
2019-05-30T08:57:41.647Z,41.0
2019-05-30T08:58:30.403Z,40.3
2019-05-30T08:59:18.288Z,40.2
2019-05-30T09:00:06.491Z,39.8
2019-05-30T09:01:00.606Z,40.0
2019-05-30T09:01:52.911Z,39.9
2019-05-30T09:02:36.711Z,40.1
2019-05-30T09:03:24.991Z,40.2
2019-05-30T09:04:13.245Z,39.3
2019-05-30T09:05:07.371Z,39.9
2019-05-30T09:06:03.299Z,40.4
2019-05-30T09:06:44.175Z,40.4
2019-05-30T09:07:31.934Z,40.1
2019-05-30T09:09:13.710Z,36.7
2019-05-30T09:10:02.867Z,37.7
2019-05-30T09:10:50.231Z,37.9
2019-05-30T09:11:39.294Z,37.5
2019-05-30T09:12:26.768Z,37.6
2019-05-30T09:13:20.366Z,37.3
2019-05-30T09:14:09.207Z,37.2
2019-05-30T09:14:56.929Z,37.6
2019-05-30T09:15:45.348Z,38.1
2019-05-30T09:16:33.535Z,38.1
2019-05-30T09:17:27.151Z,37.3
2019-05-30T09:18:17.093Z,37.6
2019-05-30T09:19:03.740Z,37.4
2019-05-30T09:19:52.037Z,36.9
2019-05-30T09:20:41.904Z,36.9
2019-05-30T09:21:33.933Z,36.9
2019-05-30T09:22:22.839Z,36.7
2019-05-30T09:23:10.538Z,37.1
2019-05-30T09:24:01.383Z,38.2
2019-05-30T09:24:48.159Z,37.7
2019-05-30T09:25:41.515Z,38.1
2019-05-30T09:26:30.062Z,37.2
2019-05-30T09:27:17.334Z,37.1
2019-05-30T09:27:20.173Z,37.1
2019-05-30T09:27:58.820Z,37.0
2019-05-30T09:28:48.176Z,36.3
2019-05-30T09:29:42.905Z,36.8
2019-05-30T09:30:29.658Z,36.6
2019-05-30T09:31:17.328Z,35.2
2019-05-30T09:32:05.633Z,36.1
2019-05-30T09:32:53.937Z,35.3
2019-05-30T09:33:48.625Z,34.5
2019-05-30T09:34:36.963Z,34.5
2019-05-30T09:35:24.187Z,37.0
2019-05-30T09:36:13.967Z,35.2
2019-05-30T09:37:00.789Z,36.4
2019-05-30T09:37:54.855Z,33.1
2019-05-30T09:38:43.600Z,33.1
2019-05-30T09:39:31.046Z,31.8
2019-05-30T09:40:19.377Z,32.6
2019-05-30T09:41:07.681Z,32.7
2019-05-30T09:42:01.424Z,32.9
2019-05-30T09:42:50.454Z,35.4
2019-05-30T09:43:37.896Z,33.2
2019-05-30T09:44:26.208Z,35.0
2019-05-30T09:45:14.519Z,33.5
2019-05-30T09:46:08.203Z,31.6
2019-05-30T09:46:57.943Z,32.1
2019-05-30T09:47:23.549Z,32.1
2019-05-30T09:47:46.167Z,31.7
2019-05-30T09:48:32.243Z,30.5
2019-05-30T09:49:20.568Z,31.7
2019-05-30T09:50:14.244Z,31.4
2019-05-30T09:51:03.183Z,31.1
2019-05-30T09:51:51.155Z,30.6
2019-05-30T09:52:39.208Z,30.9
2019-05-30T09:53:27.474Z,31.4
2019-05-30T09:54:21.130Z,33.2
2019-05-30T09:55:10.148Z,32.8
2019-05-30T09:55:57.777Z,33.3
2019-05-30T09:56:46.589Z,30.5
2019-05-30T09:57:34.423Z,30.7
2019-05-30T09:58:28.061Z,31.4
2019-05-30T09:59:16.945Z,30.5
2019-05-30T10:00:04.658Z,30.5
2019-05-30T10:00:53.009Z,31.7
2019-05-30T10:01:42.620Z,32.7
2019-05-30T10:02:35.038Z,31.3
2019-05-30T10:03:23.913Z,29.8
2019-05-30T10:04:11.699Z,30.0
2019-05-30T10:04:59.934Z,29.8
2019-05-30T10:05:48.678Z,29.4
2019-05-30T10:06:42.091Z,29.0
2019-05-30T10:07:31.525Z,29.0
2019-05-30T10:08:18.558Z,30.3
2019-05-30T10:09:07.119Z,28.8
2019-05-30T10:09:55.230Z,29.6
2019-05-30T10:10:49.572Z,30.2
2019-05-30T10:11:40.895Z,28.5
2019-05-30T10:12:25.606Z,28.2
2019-05-30T10:13:13.911Z,27.8
2019-05-30T10:14:02.230Z,26.0
2019-05-30T10:14:57.114Z,25.6
2019-05-30T10:15:45.754Z,26.0
2019-05-30T10:16:32.586Z,24.4
2019-05-30T10:17:20.849Z,25.4
2019-05-30T10:18:09.182Z,24.9
2019-05-30T10:19:02.894Z,25.2
2019-05-30T10:19:52.910Z,25.8
2019-05-30T10:20:39.540Z,24.9
2019-05-30T10:21:27.851Z,25.3
2019-05-30T10:22:16.204Z,24.8
2019-05-30T10:23:09.902Z,23.4
2019-05-30T10:23:58.813Z,23.1
2019-05-30T10:24:47.618Z,22.0
2019-05-30T10:25:34.961Z,22.1
2019-05-30T10:26:23.189Z,22.4
2019-05-30T10:27:16.908Z,21.8
2019-05-30T10:28:05.806Z,21.9
2019-05-30T10:28:53.593Z,20.9
2019-05-30T10:29:41.954Z,21.4
2019-05-30T10:30:30.380Z,20.2
2019-05-30T10:34:28.467Z,19.8
2019-05-30T10:36:05.834Z,19.0
2019-05-30T10:36:53.804Z,19.7
2019-05-30T10:37:48.915Z,19.2
2019-05-30T10:38:35.869Z,19.8
2019-05-30T10:39:24.308Z,18.6
2019-05-30T10:40:14.899Z,19.0
2019-05-30T10:41:01.222Z,18.0
2019-05-30T10:41:54.967Z,18.5
2019-05-30T10:42:43.447Z,19.2
2019-05-30T10:43:31.907Z,18.5
2019-05-30T10:45:09.123Z,18.1
2019-05-30T10:46:02.647Z,17.6
2019-05-30T10:46:52.389Z,18.1
2019-05-30T10:47:40.267Z,18.3
2019-05-30T10:50:11.045Z,18.2
2019-05-30T10:50:59.031Z,17.9
2019-05-30T10:52:37.512Z,18.8
2019-05-30T10:57:28.411Z,19.3
